Time;durP1;ratioP1;P1;durP2;ratioP2;P2;SDS_P1;SDS_P2;PMS_P1;PMS_P2;Temp;Humidity;BMP_temperature;BMP_pressure;BME280_temperature;BME280_humidity;BME280_pressure;Samples;Min_cycle;Max_cycle;Signal;HPM_P1;HPM_P2
2022/05/21 00:00:56;;;;;;;10.60;6.73;;;11.20;99.90;;;;;;5015972;28;20055;-79
2022/05/21 00:03:22;;;;;;;8.37;6.07;;;11.20;99.90;;;;;;5020643;28;20049;-78
2022/05/21 00:05:47;;;;;;;12.53;6.50;;;11.20;99.90;;;;;;5029249;28;20048;-77
2022/05/21 00:08:13;;;;;;;7.67;5.87;;;11.20;99.90;;;;;;4997332;28;20051;-78
2022/05/21 00:10:40;;;;;;;11.37;6.20;;;11.20;99.90;;;;;;5036844;28;20140;-77
2022/05/21 00:13:07;;;;;;;9.83;6.37;;;11.10;99.90;;;;;;5020189;28;20045;-78
2022/05/21 00:15:35;;;;;;;11.90;6.63;;;11.10;99.90;;;;;;5017647;28;20046;-77
2022/05/21 00:18:01;;;;;;;9.13;6.47;;;11.10;99.90;;;;;;5060568;28;20184;-76
2022/05/21 00:23:14;;;;;;;11.63;6.73;;;11.10;99.90;;;;;;5059078;28;20049;-78
2022/05/21 00:25:41;;;;;;;8.47;6.37;;;11.10;99.90;;;;;;5044837;28;20587;-78
2022/05/21 00:28:08;;;;;;;12.10;5.97;;;11.10;99.90;;;;;;5052970;28;20450;-77
2022/05/21 00:30:33;;;;;;;11.53;6.77;;;11.10;99.90;;;;;;5031774;28;20048;-77
2022/05/21 00:33:00;;;;;;;8.50;6.50;;;11.10;99.90;;;;;;5001197;28;20584;-78
2022/05/21 00:35:26;;;;;;;9.80;6.53;;;11.10;99.90;;;;;;5050278;28;20080;-78
2022/05/21 00:37:52;;;;;;;12.63;7.33;;;11.10;99.90;;;;;;5033067;28;20108;-78
2022/05/21 00:40:18;;;;;;;13.93;8.10;;;11.10;99.90;;;;;;5016461;28;20050;-78
2022/05/21 00:42:45;;;;;;;10.77;7.27;;;11.10;99.90;;;;;;5027753;28;20057;-78
2022/05/21 00:45:11;;;;;;;13.23;8.27;;;11.10;99.90;;;;;;5060568;28;20076;-78
2022/05/21 00:47:37;;;;;;;13.07;9.03;;;11.00;99.90;;;;;;5029951;28;20133;-77
2022/05/21 00:50:05;;;;;;;17.03;9.73;;;11.00;99.90;;;;;;5053656;28;20084;-77
2022/05/21 00:52:34;;;;;;;19.00;10.40;;;11.00;99.90;;;;;;5025920;28;20459;-76
2022/05/21 00:55:07;;;;;;;14.20;11.17;;;11.00;99.90;;;;;;5057105;28;20890;-77
2022/05/21 00:57:42;;;;;;;19.40;12.30;;;11.00;99.90;;;;;;5064605;28;20049;-77
2022/05/21 01:00:17;;;;;;;23.57;13.40;;;11.00;99.90;;;;;;5056966;28;20052;-77
2022/05/21 01:02:52;;;;;;;22.80;14.73;;;11.00;99.90;;;;;;5070984;28;20048;-78
2022/05/21 01:05:21;;;;;;;26.87;16.33;;;11.10;99.90;;;;;;5032921;28;20096;-76
2022/05/21 01:07:50;;;;;;;27.37;17.70;;;11.10;99.90;;;;;;5048457;28;20049;-78
2022/05/21 01:10:20;;;;;;;29.83;19.00;;;11.10;99.90;;;;;;5028665;28;20034;-77
2022/05/21 01:12:50;;;;;;;32.30;19.00;;;11.10;99.90;;;;;;5066513;28;20115;-77
2022/05/21 01:15:20;;;;;;;29.03;18.53;;;11.20;99.90;;;;;;5030526;28;20058;-78
2022/05/21 01:17:46;;;;;;;27.70;19.43;;;11.20;99.90;;;;;;5053295;28;20044;-77
2022/05/21 01:20:18;;;;;;;30.27;19.83;;;11.20;99.90;;;;;;5033308;28;20075;-77
2022/05/21 01:22:50;;;;;;;34.92;20.50;;;11.20;99.90;;;;;;5029752;28;20080;-78
2022/05/21 01:25:18;;;;;;;;;;;11.20;99.90;;;;;;5034016;28;20045;-77
2022/05/21 01:27:45;;;;;;;43.87;21.00;;;11.20;99.90;;;;;;5049816;28;19924;-77
2022/05/21 01:30:15;;;;;;;39.30;22.07;;;11.20;99.90;;;;;;5033856;28;20037;-77
2022/05/21 01:32:48;;;;;;;36.77;22.17;;;11.20;99.90;;;;;;5034813;28;20061;-77
2022/05/21 01:35:14;;;;;;;36.57;22.70;;;11.30;99.90;;;;;;5048999;28;20053;-77
2022/05/21 01:37:41;;;;;;;42.23;25.33;;;11.30;99.90;;;;;;5023180;28;20053;-77
2022/05/21 01:40:10;;;;;;;43.03;24.40;;;11.30;99.90;;;;;;5017996;28;20092;-77
2022/05/21 01:42:36;;;;;;;46.70;25.57;;;11.30;99.90;;;;;;5019775;28;20052;-77
2022/05/21 01:45:03;;;;;;;46.70;26.00;;;11.40;99.90;;;;;;5053167;28;20041;-77
2022/05/21 01:47:31;;;;;;;45.03;25.03;;;11.40;99.90;;;;;;5028304;28;20100;-78
2022/05/21 01:49:57;;;;;;;47.33;25.90;;;11.50;99.90;;;;;;5046553;28;20063;-77
2022/05/21 01:52:24;;;;;;;47.70;27.77;;;11.50;99.90;;;;;;5021076;28;20041;-77
2022/05/21 01:54:52;;;;;;;50.87;28.07;;;11.50;99.90;;;;;;5028787;28;20048;-77
2022/05/21 01:57:19;;;;;;;46.03;27.03;;;11.60;99.90;;;;;;5026709;28;20063;-78
2022/05/21 01:59:44;;;;;;;42.70;26.50;;;11.60;99.90;;;;;;5038137;28;20156;-78
2022/05/21 02:02:10;;;;;;;51.63;28.30;;;11.70;99.90;;;;;;5019025;28;20084;-78
2022/05/21 02:04:36;;;;;;;47.03;28.00;;;11.60;99.90;;;;;;5051635;28;20045;-77
2022/05/21 02:07:03;;;;;;;53.13;28.90;;;11.70;99.90;;;;;;5028671;28;20037;-77
2022/05/21 02:09:29;;;;;;;52.17;29.67;;;11.70;99.90;;;;;;5047853;28;20045;-78
2022/05/21 02:11:55;;;;;;;47.17;28.83;;;11.70;99.90;;;;;;5031020;28;20043;-77
2022/05/21 02:14:21;;;;;;;51.83;28.90;;;11.70;99.90;;;;;;5016013;28;20041;-78
2022/05/21 02:16:47;;;;;;;44.47;28.50;;;11.80;99.90;;;;;;5028529;28;20041;-78
2022/05/21 02:19:13;;;;;;;45.50;29.87;;;11.80;99.90;;;;;;4999903;28;20136;-78
2022/05/21 02:21:40;;;;;;;45.57;29.40;;;11.80;99.90;;;;;;5031080;28;20110;-78
2022/05/21 02:24:08;;;;;;;45.93;28.87;;;11.80;99.90;;;;;;5029172;28;20159;-78
2022/05/21 02:26:38;;;;;;;48.17;29.70;;;11.80;99.90;;;;;;5052754;28;20056;-78
2022/05/21 02:29:05;;;;;;;48.77;30.93;;;11.90;99.90;;;;;;5050097;28;20049;-78
2022/05/21 02:31:31;;;;;;;49.47;31.60;;;11.90;99.90;;;;;;5028106;28;20595;-78
2022/05/21 02:33:57;;;;;;;51.60;31.17;;;11.90;99.90;;;;;;5015635;28;20421;-78
2022/05/21 02:39:25;;;;;;;47.60;31.37;;;11.90;99.90;;;;;;5049084;28;20048;-78
2022/05/21 02:41:53;;;;;;;52.23;31.33;;;11.90;99.90;;;;;;5041332;28;20060;-77
2022/05/21 02:44:19;;;;;;;47.63;30.40;;;11.90;99.90;;;;;;5036388;28;20052;-78
2022/05/21 02:46:46;;;;;;;49.43;32.33;;;11.90;99.90;;;;;;5038115;28;20049;-78
2022/05/21 02:49:12;;;;;;;49.20;32.43;;;12.00;99.90;;;;;;5011293;28;20057;-79
2022/05/21 02:51:38;;;;;;;53.87;31.60;;;12.00;99.90;;;;;;5021627;28;20052;-78
2022/05/21 02:54:05;;;;;;;55.17;32.37;;;12.00;99.90;;;;;;5015481;28;20057;-79
2022/05/21 02:56:30;;;;;;;49.93;31.57;;;12.00;99.90;;;;;;5000311;28;20664;-78
2022/05/21 02:58:56;;;;;;;53.03;32.23;;;12.00;99.90;;;;;;5023058;28;20069;-77
2022/05/21 03:01:22;;;;;;;48.13;30.10;;;12.00;99.90;;;;;;5026792;28;20047;-78
2022/05/21 03:03:47;;;;;;;55.23;32.13;;;12.10;99.90;;;;;;5019085;28;20037;-78
2022/05/21 03:06:13;;;;;;;50.93;30.20;;;12.10;99.90;;;;;;5016820;28;20059;-78
2022/05/21 03:11:23;;;;;;;46.50;29.90;;;12.10;99.90;;;;;;5039379;28;20049;-79
2022/05/21 03:13:49;;;;;;;48.07;28.20;;;12.10;99.90;;;;;;5014317;28;20150;-78
2022/05/21 03:16:14;;;;;;;47.47;29.30;;;12.20;99.90;;;;;;5053043;28;20109;-78
2022/05/21 03:18:40;;;;;;;49.93;29.47;;;12.10;99.90;;;;;;5026814;28;20744;-78
2022/05/21 03:21:06;;;;;;;49.90;29.53;;;12.20;99.90;;;;;;5029492;28;20049;-78
2022/05/21 03:23:32;;;;;;;45.77;27.60;;;12.20;99.90;;;;;;5013387;28;20053;-79
2022/05/21 03:25:57;;;;;;;48.93;28.33;;;12.20;99.90;;;;;;5026006;28;20045;-78
2022/05/21 03:28:23;;;;;;;46.97;27.90;;;12.20;99.90;;;;;;5046155;28;20068;-77
2022/05/21 03:30:50;;;;;;;48.77;28.70;;;12.20;99.90;;;;;;5012459;28;20072;-78
2022/05/21 03:33:16;;;;;;;45.80;27.90;;;12.30;99.90;;;;;;5014527;28;20573;-78
2022/05/21 03:35:43;;;;;;;44.83;26.43;;;12.30;99.90;;;;;;5002868;28;20040;-78
2022/05/21 03:38:10;;;;;;;44.00;27.30;;;12.30;99.90;;;;;;5031846;28;20048;-77
2022/05/21 03:40:36;;;;;;;42.43;25.40;;;12.30;99.90;;;;;;5025214;28;20037;-78
2022/05/21 03:43:02;;;;;;;37.13;24.57;;;12.30;99.90;;;;;;5027831;28;20045;-78
2022/05/21 03:45:27;;;;;;;46.40;25.77;;;12.30;99.90;;;;;;5015372;28;20048;-77
2022/05/21 03:47:54;;;;;;;39.03;24.93;;;12.30;99.90;;;;;;5028471;28;20104;-77
2022/05/21 03:50:25;;;;;;;40.97;25.77;;;12.30;99.90;;;;;;5015489;28;20412;-78
2022/05/21 03:52:51;;;;;;;38.55;23.38;;;12.30;99.90;;;;;;5033827;28;20146;-78
2022/05/21 03:55:17;;;;;;;36.47;23.93;;;12.30;99.90;;;;;;5037679;28;20037;-78
2022/05/21 03:57:43;;;;;;;42.90;24.80;;;12.40;99.90;;;;;;5024311;28;20084;-78
2022/05/21 04:00:13;;;;;;;38.40;24.40;;;12.40;99.90;;;;;;5034204;28;20053;-78
2022/05/21 04:02:39;;;;;;;38.23;22.20;;;12.40;99.90;;;;;;5029710;28;20071;-80
2022/05/21 04:05:07;;;;;;;36.43;23.93;;;12.40;99.90;;;;;;5044923;28;20041;-76
2022/05/21 04:07:33;;;;;;;39.20;22.30;;;12.50;99.90;;;;;;5044483;28;20049;-78
2022/05/21 04:09:58;;;;;;;35.93;20.50;;;12.50;99.90;;;;;;4999446;28;20049;-77
2022/05/21 04:12:24;;;;;;;42.17;20.33;;;12.50;99.90;;;;;;5028867;28;20836;-77
2022/05/21 04:14:50;;;;;;;32.50;19.40;;;12.50;99.90;;;;;;5018383;28;20053;-76
2022/05/21 04:17:16;;;;;;;37.27;18.50;;;12.60;99.90;;;;;;5013619;28;20101;-78
2022/05/21 04:19:42;;;;;;;33.37;19.83;;;12.60;99.90;;;;;;5053215;28;20059;-78
2022/05/21 04:22:09;;;;;;;31.60;17.03;;;12.60;99.90;;;;;;5030567;28;20051;-79
2022/05/21 04:24:35;;;;;;;30.90;17.30;;;12.60;99.90;;;;;;5013995;28;20080;-78
2022/05/21 04:27:01;;;;;;;31.70;17.23;;;12.60;99.90;;;;;;5045444;28;20064;-78
2022/05/21 04:29:27;;;;;;;36.53;17.57;;;12.60;99.90;;;;;;5021317;28;20100;-78
2022/05/21 04:31:53;;;;;;;31.63;15.97;;;12.70;99.90;;;;;;5019237;28;20067;-78
2022/05/21 04:34:19;;;;;;;29.47;14.33;;;12.70;99.90;;;;;;5023535;28;20056;-78
2022/05/21 04:36:44;;;;;;;26.43;14.60;;;12.70;99.90;;;;;;5034369;28;20113;-77
2022/05/21 04:39:10;;;;;;;24.73;13.60;;;12.70;99.90;;;;;;5035017;28;20045;-79
2022/05/21 04:41:36;;;;;;;30.60;13.77;;;12.70;99.90;;;;;;5050174;28;20103;-78
2022/05/21 04:44:02;;;;;;;30.93;13.37;;;12.70;99.90;;;;;;5020622;28;20054;-77
2022/05/21 04:46:30;;;;;;;27.07;13.17;;;12.80;99.90;;;;;;5020420;28;20037;-82
2022/05/21 04:48:55;;;;;;;28.20;12.60;;;12.80;99.90;;;;;;5032459;28;20051;-78
2022/05/21 04:51:22;;;;;;;23.80;11.23;;;12.80;99.90;;;;;;5005552;28;20140;-79
2022/05/21 04:53:47;;;;;;;24.03;9.00;;;12.80;99.90;;;;;;5032893;28;20033;-79
2022/05/21 04:56:13;;;;;;;21.50;9.50;;;12.80;99.90;;;;;;5003066;28;20118;-79
2022/05/21 04:58:39;;;;;;;19.90;8.20;;;12.80;99.90;;;;;;5037984;28;20074;-79
2022/05/21 05:01:09;;;;;;;18.63;7.97;;;12.80;99.90;;;;;;5036386;28;20045;-79
2022/05/21 05:03:35;;;;;;;25.93;7.87;;;12.80;99.90;;;;;;5019655;28;20050;-77
2022/05/21 05:06:02;;;;;;;15.07;6.50;;;12.90;99.90;;;;;;5036402;28;20068;-77
2022/05/21 05:08:28;;;;;;;19.07;6.77;;;12.90;99.90;;;;;;5023288;28;20053;-79
2022/05/21 05:10:55;;;;;;;17.17;6.30;;;12.90;99.90;;;;;;5020247;28;20136;-78
2022/05/21 05:13:21;;;;;;;20.90;6.20;;;12.90;99.90;;;;;;5052035;28;20055;-78
2022/05/21 05:15:47;;;;;;;17.77;6.77;;;13.00;99.90;;;;;;5038616;28;20045;-78
2022/05/21 05:18:15;;;;;;;13.03;5.67;;;13.10;99.90;;;;;;5003697;28;20795;-78
2022/05/21 05:20:41;;;;;;;15.53;5.93;;;13.10;99.90;;;;;;5039814;28;20053;-82
2022/05/21 05:23:08;;;;;;;21.30;6.33;;;13.20;99.90;;;;;;5032028;28;20041;-78
2022/05/21 05:25:34;;;;;;;17.73;5.27;;;13.30;99.90;;;;;;5053401;28;20111;-78
2022/05/21 05:28:00;;;;;;;17.33;5.73;;;13.30;99.90;;;;;;5035774;28;20049;-79
2022/05/21 05:30:26;;;;;;;16.53;5.87;;;13.40;99.90;;;;;;5055837;28;20128;-78
2022/05/21 05:32:52;;;;;;;18.43;5.77;;;13.40;99.90;;;;;;5054903;28;20052;-75
2022/05/21 05:35:18;;;;;;;17.23;5.67;;;13.50;99.90;;;;;;5029971;28;20112;-77
2022/05/21 05:37:44;;;;;;;15.20;5.03;;;13.50;99.90;;;;;;5036905;28;20060;-76
2022/05/21 05:40:13;;;;;;;19.03;5.00;;;13.50;99.90;;;;;;5017155;28;20049;-79
2022/05/21 05:42:39;;;;;;;17.87;5.40;;;13.50;99.90;;;;;;5033172;28;20079;-78
2022/05/21 05:45:07;;;;;;;13.40;4.80;;;13.60;99.90;;;;;;5032246;28;20510;-87
2022/05/21 05:47:33;;;;;;;17.60;5.13;;;13.60;99.90;;;;;;5031641;28;20041;-82
2022/05/21 05:50:00;;;;;;;15.70;4.83;;;13.60;99.90;;;;;;5046370;28;20053;-79
2022/05/21 05:52:27;;;;;;;15.03;4.73;;;13.60;99.90;;;;;;5027974;28;20045;-79
2022/05/21 05:54:53;;;;;;;24.60;6.40;;;13.70;99.90;;;;;;5012285;28;20046;-78
2022/05/21 05:57:19;;;;;;;12.90;4.70;;;13.80;99.90;;;;;;5054259;28;20041;-79
2022/05/21 05:59:51;;;;;;;13.13;5.67;;;13.80;99.90;;;;;;5000692;28;20076;-78
2022/05/21 06:05:04;;;;;;;18.20;5.10;;;13.80;99.90;;;;;;5064892;28;20049;-79
2022/05/21 06:07:31;;;;;;;12.07;4.17;;;13.70;99.90;;;;;;5032903;28;20146;-79
2022/05/21 06:10:03;;;;;;;11.27;4.20;;;13.80;99.90;;;;;;5046770;28;20045;-78
2022/05/21 06:12:29;;;;;;;23.83;5.03;;;13.80;99.90;;;;;;5069215;28;20041;-80
2022/05/21 06:14:55;;;;;;;12.50;4.10;;;13.70;99.90;;;;;;5037192;28;20418;-78
2022/05/21 06:17:20;;;;;;;15.97;4.53;;;13.80;99.90;;;;;;5019413;28;20038;-78
2022/05/21 06:19:46;;;;;;;11.67;4.53;;;13.90;99.90;;;;;;5023434;28;20063;-78
2022/05/21 06:22:12;;;;;;;10.25;4.15;;;14.10;99.90;;;;;;5024798;28;20072;-78
2022/05/21 06:24:38;;;;;;;12.57;4.73;;;14.10;99.90;;;;;;5016058;28;20148;-78
2022/05/21 06:27:07;;;;;;;14.27;4.07;;;14.20;99.90;;;;;;5017350;28;20103;-79
2022/05/21 06:29:33;;;;;;;15.80;4.90;;;14.20;99.90;;;;;;5019152;28;20045;-79
2022/05/21 06:31:58;;;;;;;11.25;3.72;;;14.10;99.90;;;;;;5013636;28;20049;-79
2022/05/21 06:34:24;;;;;;;11.03;3.80;;;14.10;99.90;;;;;;5015016;28;20040;-79
2022/05/21 06:36:50;;;;;;;14.63;4.50;;;14.10;99.90;;;;;;5011182;28;20076;-77
2022/05/21 06:39:16;;;;;;;12.88;4.20;;;14.00;99.90;;;;;;5030488;28;20710;-79
2022/05/21 06:41:42;;;;;;;14.25;3.90;;;14.00;99.90;;;;;;5032054;28;20041;-79
2022/05/21 06:44:09;;;;;;;16.70;4.53;;;14.00;99.90;;;;;;5011689;28;20507;-77
2022/05/21 06:46:36;;;;;;;11.75;3.90;;;14.00;99.90;;;;;;4997918;28;20038;-78
2022/05/21 06:49:02;;;;;;;12.70;4.55;;;13.90;99.90;;;;;;5028472;28;20045;-75
2022/05/21 06:51:28;;;;;;;8.77;3.85;;;13.90;99.90;;;;;;5035567;28;20057;-75
2022/05/21 06:53:53;;;;;;;12.23;3.97;;;13.90;99.90;;;;;;5017098;28;20092;-75
2022/05/21 06:56:19;;;;;;;13.33;4.13;;;13.90;99.90;;;;;;4998829;28;20303;-75
2022/05/21 06:58:45;;;;;;;12.90;4.15;;;13.80;99.90;;;;;;5034117;28;20044;-75
2022/05/21 07:01:11;;;;;;;15.40;4.40;;;13.80;99.90;;;;;;5018778;28;20045;-76
2022/05/21 07:03:37;;;;;;;13.10;4.30;;;13.80;99.90;;;;;;5044458;28;20064;-75
2022/05/21 07:08:49;;;;;;;11.90;3.60;;;14.00;99.90;;;;;;5068948;28;20045;-76
2022/05/21 07:11:14;;;;;;;7.82;3.55;;;14.30;99.90;;;;;;5046263;28;20691;-74
2022/05/21 07:13:40;;;;;;;13.13;3.78;;;14.50;99.90;;;;;;5017206;28;20029;-77
2022/05/21 07:16:06;;;;;;;8.70;3.92;;;14.50;99.90;;;;;;5059938;28;20183;-76
2022/05/21 07:18:32;;;;;;;8.85;3.95;;;14.80;99.90;;;;;;4998873;28;20037;-77
2022/05/21 07:20:58;;;;;;;16.73;4.43;;;14.80;99.90;;;;;;5012942;28;20049;-78
2022/05/21 07:23:26;;;;;;;11.13;3.70;;;14.80;99.90;;;;;;5026761;28;20029;-79
2022/05/21 07:25:52;;;;;;;8.35;3.80;;;14.90;99.90;;;;;;5058066;28;20056;-80
2022/05/21 07:28:21;;;;;;;8.35;3.28;;;15.20;99.90;;;;;;5018745;28;20544;-80
2022/05/21 07:30:47;;;;;;;13.75;3.55;;;15.30;99.90;;;;;;5034393;28;20055;-79
2022/05/21 07:33:18;;;;;;;6.03;2.55;;;15.50;99.90;;;;;;5028440;28;20607;-80
2022/05/21 07:35:45;;;;;;;9.10;2.80;;;15.70;99.90;;;;;;5034161;28;20108;-79
2022/05/21 07:38:13;;;;;;;9.57;2.92;;;15.80;99.90;;;;;;5056910;28;20290;-79
2022/05/21 07:40:40;;;;;;;8.23;2.88;;;16.00;99.90;;;;;;5039338;28;20561;-79
2022/05/21 07:43:10;;;;;;;8.88;2.60;;;16.10;99.90;;;;;;5018540;28;20042;-79
2022/05/21 07:45:38;;;;;;;10.07;3.30;;;16.10;99.90;;;;;;5037815;28;20088;-79
2022/05/21 07:48:10;;;;;;;10.15;3.30;;;16.00;99.90;;;;;;5016723;28;20044;-78
2022/05/21 07:50:40;;;;;;;5.68;2.55;;;15.90;99.90;;;;;;5053563;28;20120;-80
2022/05/21 07:53:13;;;;;;;9.57;3.08;;;15.80;99.90;;;;;;5028980;28;20037;-78
2022/05/21 07:55:41;;;;;;;13.73;3.00;;;16.00;99.90;;;;;;5059013;28;20041;-80
2022/05/21 07:58:07;;;;;;;12.73;3.20;;;16.20;99.90;;;;;;5060947;28;20153;-79
2022/05/21 08:00:33;;;;;;;7.82;2.97;;;16.30;99.90;;;;;;5049807;28;20045;-80
2022/05/21 08:02:58;;;;;;;9.82;2.67;;;16.30;99.90;;;;;;5031235;28;20114;-80
2022/05/21 08:05:25;;;;;;;8.73;2.50;;;16.50;99.90;;;;;;5003054;28;20232;-80
2022/05/21 08:07:52;;;;;;;6.63;2.08;;;16.70;99.90;;;;;;5038882;28;20041;-80
2022/05/21 08:10:22;;;;;;;9.32;2.88;;;16.80;99.90;;;;;;5069940;28;20613;-80
2022/05/21 08:12:49;;;;;;;10.70;2.70;;;16.80;99.90;;;;;;5061963;28;20099;-80
2022/05/21 08:15:15;;;;;;;12.00;2.60;;;16.60;99.90;;;;;;5027837;28;20519;-79
2022/05/21 08:17:41;;;;;;;8.18;2.35;;;16.20;99.90;;;;;;5045554;28;20108;-80
2022/05/21 08:20:10;;;;;;;6.95;2.40;;;16.30;99.90;;;;;;5055694;28;20073;-80
2022/05/21 08:28:05;;;;;;;6.95;2.60;;;16.50;99.90;;;;;;5055332;28;20355;-81
2022/05/21 08:30:32;;;;;;;8.82;2.55;;;16.60;99.90;;;;;;5011044;28;20037;-80
2022/05/21 08:33:04;;;;;;;8.95;2.95;;;16.70;99.90;;;;;;5012246;28;20454;-80
2022/05/21 08:35:30;;;;;;;8.10;2.88;;;16.80;99.90;;;;;;5025551;28;20041;-81
2022/05/21 08:37:56;;;;;;;7.15;3.35;;;16.60;99.90;;;;;;5020856;28;20492;-80
2022/05/21 08:40:22;;;;;;;5.75;2.17;;;16.50;99.90;;;;;;5034835;28;20041;-79
2022/05/21 08:42:58;;;;;;;8.65;2.78;;;16.50;99.90;;;;;;5025101;28;20072;-79
2022/05/21 08:45:40;;;;;;;6.97;2.63;;;16.50;99.90;;;;;;5026271;28;20060;-80
2022/05/21 08:48:07;;;;;;;;;;;16.70;99.90;;;;;;5037148;28;20079;-79
2022/05/21 08:50:34;;;;;;;8.13;2.63;;;16.80;99.90;;;;;;5065590;28;19975;-80
2022/05/21 08:53:14;;;;;;;6.40;2.50;;;16.90;99.90;;;;;;5026819;28;20582;-80
2022/05/21 08:55:45;;;;;;;10.93;2.55;;;17.10;99.90;;;;;;5035617;28;20045;-80
2022/05/21 08:58:32;;;;;;;7.65;2.38;;;17.30;99.90;;;;;;5030151;28;20053;-80
2022/05/21 09:00:58;;;;;;;9.07;2.55;;;17.40;99.90;;;;;;5055151;28;20045;-80
2022/05/21 09:03:25;;;;;;;7.10;2.60;;;17.40;99.90;;;;;;5040573;28;20045;-80
2022/05/21 09:06:03;;;;;;;9.00;2.85;;;17.40;99.90;;;;;;5038952;28;20159;-81
2022/05/21 09:08:29;;;;;;;8.10;2.30;;;17.30;99.90;;;;;;5031602;28;20109;-80
2022/05/21 09:11:06;;;;;;;10.38;3.08;;;17.10;99.90;;;;;;5049268;28;20127;-81
2022/05/21 09:14:06;;;;;;;8.63;2.40;;;16.90;99.90;;;;;;5035695;28;20036;-81
2022/05/21 09:16:55;;;;;;;9.90;2.58;;;17.00;99.90;;;;;;5064024;28;20591;-81
2022/05/21 09:19:23;;;;;;;6.97;2.63;;;17.00;99.90;;;;;;5035857;28;20080;-80
2022/05/21 09:21:55;;;;;;;7.57;2.25;;;17.20;99.90;;;;;;5055736;28;20081;-80
2022/05/21 09:24:39;;;;;;;11.23;3.08;;;17.50;99.90;;;;;;5066597;28;20086;-80
2022/05/21 09:27:22;;;;;;;8.90;2.33;;;17.60;99.90;;;;;;5032472;28;20123;-81
2022/05/21 09:29:51;;;;;;;7.05;2.25;;;17.50;99.90;;;;;;5053008;28;20052;-80
2022/05/21 09:32:33;;;;;;;7.57;2.60;;;17.30;99.90;;;;;;5029491;28;20042;-80
2022/05/21 09:35:02;;;;;;;7.38;2.38;;;17.40;99.90;;;;;;5055818;28;20121;-81
2022/05/21 09:37:29;;;;;;;8.15;2.42;;;17.60;99.90;;;;;;5056067;28;20068;-80
2022/05/21 09:39:55;;;;;;;6.85;2.28;;;17.60;99.90;;;;;;5062927;28;20053;-81
2022/05/21 09:45:26;;;;;;;5.55;2.17;;;17.10;99.90;;;;;;5058915;28;20105;-81
2022/05/21 09:48:04;;;;;;;8.70;2.00;;;17.00;99.90;;;;;;5048217;28;20214;-81
2022/05/21 09:50:31;;;;;;;6.47;2.25;;;17.10;99.90;;;;;;5051010;28;20063;-81
2022/05/21 09:52:57;;;;;;;7.38;2.40;;;17.50;99.90;;;;;;5028041;28;20049;-81
2022/05/21 09:55:29;;;;;;;7.35;2.17;;;17.90;99.90;;;;;;5020990;28;20091;-82
2022/05/21 09:58:07;;;;;;;7.07;2.38;;;18.10;99.90;;;;;;5031862;28;20102;-81
2022/05/21 10:00:35;;;;;;;10.82;2.35;;;18.10;99.90;;;;;;5029098;28;20041;-82
2022/05/21 10:03:04;;;;;;;8.57;2.60;;;17.80;99.90;;;;;;5029976;28;20458;-82
2022/05/21 10:05:38;;;;;;;8.05;2.28;;;17.60;99.90;;;;;;5056603;28;20047;-81
2022/05/21 10:11:03;;;;;;;5.30;1.77;;;17.30;99.90;;;;;;5051719;28;20048;-81
2022/05/21 10:13:41;;;;;;;5.30;1.85;;;17.60;99.90;;;;;;5029101;28;20454;-80
2022/05/21 10:16:27;;;;;;;6.75;2.30;;;17.90;99.90;;;;;;5029182;28;20050;-80
2022/05/21 10:19:10;;;;;;;5.07;2.00;;;17.80;99.90;;;;;;5019649;28;20080;-80
2022/05/21 10:22:09;;;;;;;7.38;2.05;;;17.50;99.90;;;;;;5059559;28;20075;-81
2022/05/21 10:24:59;;;;;;;5.03;1.75;;;17.40;99.90;;;;;;5045237;28;20843;-81
2022/05/21 10:27:34;;;;;;;7.07;2.20;;;17.40;99.90;;;;;;5035682;28;20437;-81
2022/05/21 10:30:17;;;;;;;9.30;2.22;;;17.30;99.90;;;;;;5054555;28;20058;-81
2022/05/21 10:33:37;;;;;;;7.47;1.88;;;17.60;99.90;;;;;;5070471;28;20059;-81
2022/05/21 10:36:28;;;;;;;7.70;1.95;;;18.10;99.90;;;;;;5038906;28;20100;-80
2022/05/21 10:39:29;;;;;;;8.88;2.25;;;18.10;99.90;;;;;;5045353;28;20045;-81
2022/05/21 10:42:30;;;;;;;5.35;2.00;;;17.80;99.90;;;;;;5054667;28;20048;-81
2022/05/21 10:45:01;;;;;;;6.10;2.00;;;17.70;99.90;;;;;;5021851;28;20061;-80
2022/05/21 10:47:33;;;;;;;8.93;2.00;;;17.90;99.90;;;;;;5017811;28;20133;-81
2022/05/21 10:50:23;;;;;;;4.45;1.50;;;18.20;99.90;;;;;;5027374;28;20045;-82
2022/05/21 10:53:19;;;;;;;5.38;1.83;;;18.60;99.90;;;;;;5032565;28;20060;-81
2022/05/21 10:56:05;;;;;;;8.63;2.08;;;18.70;99.90;;;;;;5050226;28;20052;-81
2022/05/21 10:58:41;;;;;;;7.22;1.55;;;18.40;99.90;;;;;;5053531;28;20048;-81
2022/05/21 11:01:18;;;;;;;3.72;1.80;;;18.10;99.90;;;;;;5026373;28;20038;-82
2022/05/21 11:03:53;;;;;;;6.10;1.52;;;17.90;99.90;;;;;;5017887;28;20128;-81
2022/05/21 11:06:31;;;;;;;4.57;2.30;;;18.20;99.90;;;;;;5046755;28;20084;-81
2022/05/21 11:09:32;;;;;;;8.55;1.88;;;18.50;99.90;;;;;;5044769;28;20088;-78
2022/05/21 11:12:11;;;;;;;7.60;2.25;;;18.90;99.90;;;;;;5027623;28;20060;-79
2022/05/21 11:14:43;;;;;;;7.47;2.20;;;19.00;99.90;;;;;;5049423;28;20053;-80
2022/05/21 11:17:24;;;;;;;6.68;2.22;;;19.10;99.90;;;;;;5026658;28;20051;-81
2022/05/21 11:20:17;;;;;;;5.25;1.85;;;19.10;99.90;;;;;;5029047;28;20128;-81
2022/05/21 11:23:01;;;;;;;6.15;1.58;;;19.00;99.90;;;;;;5045618;28;20288;-81
2022/05/21 11:25:36;;;;;;;7.05;2.20;;;18.90;99.90;;;;;;5027738;28;20055;-82
2022/05/21 11:28:32;;;;;;;9.75;2.13;;;18.80;99.90;;;;;;5058442;28;20157;-81
2022/05/21 11:31:07;;;;;;;6.70;1.80;;;19.00;99.90;;;;;;5046930;28;20131;-80
2022/05/21 11:39:13;;;;;;;4.75;1.80;;;18.30;99.90;;;;;;5051766;28;20041;-80
2022/05/21 11:41:56;;;;;;;9.00;2.00;;;18.30;99.90;;;;;;5054064;28;20039;-79
2022/05/21 11:44:58;;;;;;;7.75;2.00;;;18.30;99.90;;;;;;5026549;28;20040;-79
2022/05/21 11:47:33;;;;;;;6.07;2.27;;;18.00;99.90;;;;;;5039934;28;20061;-80
2022/05/21 11:50:03;;;;;;;9.85;2.40;;;17.80;99.90;;;;;;5043696;28;20707;-80
2022/05/21 11:52:32;;;;;;;5.85;2.30;;;17.60;99.90;;;;;;5049434;28;20491;-80
2022/05/21 11:54:59;;;;;;;3.72;1.90;;;17.50;99.90;;;;;;5046788;28;20119;-80
2022/05/21 11:57:32;;;;;;;7.20;1.90;;;17.80;99.90;;;;;;5007720;28;20041;-80
2022/05/21 11:59:59;;;;;;;6.00;2.13;;;18.10;99.90;;;;;;5051004;28;20052;-80
2022/05/21 12:02:28;;;;;;;7.18;2.13;;;18.30;99.90;;;;;;5018819;28;20045;-80
2022/05/21 12:04:56;;;;;;;5.75;2.08;;;18.50;99.90;;;;;;5026349;28;20064;-79
2022/05/21 12:07:41;;;;;;;8.68;2.53;;;19.00;99.90;;;;;;5049330;28;20049;-80
2022/05/21 12:10:25;;;;;;;8.13;2.28;;;19.20;99.90;;;;;;5047804;28;20052;-80
2022/05/21 12:13:16;;;;;;;8.20;2.28;;;19.30;99.90;;;;;;5057355;28;20544;-80
2022/05/21 12:15:53;;;;;;;5.03;1.95;;;19.00;99.90;;;;;;5034707;28;20052;-79
2022/05/21 12:18:43;;;;;;;6.78;2.15;;;18.90;99.90;;;;;;5026577;28;20068;-80
2022/05/21 12:23:59;;;;;;;4.15;1.98;;;19.10;99.90;;;;;;5049975;28;20410;-79
2022/05/21 12:26:29;;;;;;;8.52;2.15;;;19.40;99.90;;;;;;5029499;28;20084;-79
2022/05/21 12:29:14;;;;;;;6.68;1.85;;;19.50;99.90;;;;;;5047064;28;20044;-80
2022/05/21 12:31:44;;;;;;;6.82;1.83;;;19.70;99.90;;;;;;5030088;28;20045;-79
2022/05/21 12:34:22;;;;;;;4.75;1.77;;;19.70;99.90;;;;;;5032339;28;20523;-79
2022/05/21 12:37:26;;;;;;;6.45;2.08;;;19.60;99.90;;;;;;5023824;28;20484;-80
2022/05/21 12:40:01;;;;;;;8.27;2.20;;;19.40;99.90;;;;;;5044547;28;20058;-79
2022/05/21 12:42:43;;;;;;;6.90;2.10;;;19.00;99.90;;;;;;5031417;28;20075;-79
2022/05/21 12:45:11;;;;;;;8.77;1.85;;;18.80;99.90;;;;;;5037857;28;20052;-80
2022/05/21 12:47:42;;;;;;;7.55;2.05;;;18.90;99.90;;;;;;5025276;28;20048;-79
2022/05/21 12:50:18;;;;;;;6.18;1.75;;;19.40;99.90;;;;;;5045373;28;20051;-78
2022/05/21 12:52:51;;;;;;;8.32;2.45;;;19.90;99.90;;;;;;5043082;28;20152;-79
2022/05/21 12:55:20;;;;;;;5.18;2.17;;;20.40;99.90;;;;;;5031197;28;20045;-80
2022/05/21 12:57:46;;;;;;;4.70;1.92;;;20.40;99.90;;;;;;5034096;28;20053;-79
2022/05/21 13:00:19;;;;;;;8.25;2.05;;;20.50;99.90;;;;;;5022721;28;20570;-80
2022/05/21 13:02:51;;;;;;;5.70;1.88;;;20.60;99.90;;;;;;5060337;28;20060;-80
2022/05/21 13:05:30;;;;;;;8.55;1.95;;;20.60;99.90;;;;;;5065024;28;20076;-80
2022/05/21 13:08:01;;;;;;;4.97;1.85;;;20.60;99.90;;;;;;5030186;28;20049;-80
2022/05/21 13:10:33;;;;;;;4.88;1.77;;;20.60;99.90;;;;;;5051190;28;20041;-80
2022/05/21 13:13:09;;;;;;;3.22;1.55;;;20.50;99.90;;;;;;5055953;28;20045;-79
2022/05/21 13:15:39;;;;;;;8.00;1.60;;;20.50;99.90;;;;;;5039332;28;20041;-79
2022/05/21 13:18:42;;;;;;;4.72;1.77;;;20.50;99.90;;;;;;5043145;28;20518;-79
2022/05/21 13:21:43;;;;;;;7.53;1.90;;;20.60;99.90;;;;;;5020689;28;20048;-80
2022/05/21 13:24:14;;;;;;;7.15;1.50;;;20.30;99.90;;;;;;5069511;28;20115;-80
2022/05/21 13:26:40;;;;;;;6.95;1.73;;;19.90;99.90;;;;;;5039436;28;20131;-79
2022/05/21 13:29:21;;;;;;;5.32;1.55;;;19.60;99.90;;;;;;5052075;28;20088;-79